Time;durP1;ratioP1;P1;durP2;ratioP2;P2;SDS_P1;SDS_P2;PMS_P1;PMS_P2;Temp;Humidity;BMP_temperature;BMP_pressure;BME280_temperature;BME280_humidity;BME280_pressure;Samples;Min_cycle;Max_cycle;Signal;HPM_P1;HPM_P2
2021/08/28 00:00:18;;;;;;;2.77;2.00;;;21.90;99.90;;;;;;6236854;23;20543;-92
2021/08/28 00:02:50;;;;;;;3.40;1.87;;;21.70;99.90;;;;;;6228947;23;20183;-91
2021/08/28 00:05:25;;;;;;;3.63;1.63;;;21.40;99.90;;;;;;6230232;23;20229;-91
2021/08/28 00:08:13;;;;;;;2.17;1.53;;;21.40;99.90;;;;;;6237261;23;20180;-91
2021/08/28 00:13:36;;;;;;;2.67;1.90;;;20.80;99.90;;;;;;6233912;23;20238;-91
2021/08/28 00:16:12;;;;;;;2.60;1.70;;;20.80;99.90;;;;;;6234688;23;20187;-91
2021/08/28 00:18:46;;;;;;;4.17;1.90;;;21.00;99.90;;;;;;6236349;23;20172;-91
2021/08/28 00:21:30;;;;;;;2.70;1.57;;;21.20;99.90;;;;;;6237563;23;20171;-91
2021/08/28 00:24:02;;;;;;;2.97;1.77;;;21.00;99.90;;;;;;6239133;23;20240;-91
2021/08/28 00:26:34;;;;;;;2.40;1.60;;;20.60;99.90;;;;;;6240691;23;20169;-94
2021/08/28 00:29:07;;;;;;;5.00;2.03;;;20.30;99.90;;;;;;6240543;23;20176;-91
2021/08/28 00:31:39;;;;;;;2.70;1.80;;;20.00;99.90;;;;;;6247437;22;20175;-91
2021/08/28 00:34:11;;;;;;;4.53;1.93;;;19.90;99.90;;;;;;6274394;22;20165;-90
2021/08/28 00:36:44;;;;;;;2.87;1.77;;;19.50;99.90;;;;;;6243683;22;20199;-91
2021/08/28 00:39:16;;;;;;;3.53;1.80;;;19.30;99.90;;;;;;6272407;23;20179;-90
2021/08/28 00:41:47;;;;;;;4.43;2.10;;;19.20;99.90;;;;;;6235870;22;20203;-88
2021/08/28 00:44:20;;;;;;;2.37;1.80;;;19.30;99.90;;;;;;6246240;23;20338;-90
2021/08/28 00:46:51;;;;;;;2.30;1.40;;;19.50;99.90;;;;;;6240426;23;20180;-90
2021/08/28 00:49:25;;;;;;;3.77;1.80;;;19.80;99.90;;;;;;6265698;23;20179;-90
2021/08/28 01:00:25;;;;;;;3.60;2.33;;;21.40;99.90;;;;;;6240256;23;20180;-95
2021/08/28 01:12:13;;;;;;;2.20;1.57;;;21.40;99.90;;;;;;6236280;23;20194;-91
2021/08/28 01:14:49;;;;;;;5.43;1.83;;;21.50;99.90;;;;;;6234408;23;20168;-91
2021/08/28 01:17:23;;;;;;;1.77;1.40;;;21.90;99.90;;;;;;6230431;23;20187;-91
2021/08/28 01:20:04;;;;;;;2.87;1.60;;;22.00;99.90;;;;;;6235731;23;20164;-90
2021/08/28 01:22:38;;;;;;;3.47;1.70;;;22.00;99.90;;;;;;6241420;23;20176;-91
2021/08/28 01:25:12;;;;;;;2.67;2.00;;;21.90;99.90;;;;;;6242329;23;20160;-90
2021/08/28 01:27:49;;;;;;;3.40;1.50;;;21.80;99.90;;;;;;6240226;23;20185;-91
2021/08/28 01:36:10;;;;;;;2.77;1.60;;;20.50;99.90;;;;;;6236168;23;20184;-91
2021/08/28 01:38:47;;;;;;;2.33;1.70;;;20.20;99.90;;;;;;6226137;23;20180;-92
2021/08/28 01:41:20;;;;;;;2.60;1.40;;;19.70;99.90;;;;;;6227297;23;20180;-92
2021/08/28 01:43:53;;;;;;;2.97;1.63;;;19.50;99.90;;;;;;6228456;23;20175;-93
2021/08/28 01:46:27;;;;;;;4.23;1.80;;;19.40;99.90;;;;;;6233067;23;20169;-92
2021/08/28 01:48:59;;;;;;;2.97;1.70;;;19.30;99.90;;;;;;6223862;23;20160;-91
2021/08/28 01:51:41;;;;;;;2.50;1.47;;;19.20;99.90;;;;;;6226692;23;20207;-92
2021/08/28 01:54:22;;;;;;;2.53;1.40;;;19.20;99.90;;;;;;6236973;23;20193;-92
2021/08/28 01:59:54;;;;;;;4.03;1.80;;;19.00;99.90;;;;;;6242496;23;20186;-94
2021/08/28 02:02:27;;;;;;;2.90;1.83;;;18.80;99.90;;;;;;6241488;23;20192;-94
2021/08/28 02:04:59;;;;;;;4.40;1.90;;;18.70;99.90;;;;;;6242960;23;20165;-93
2021/08/28 02:07:39;;;;;;;5.57;1.83;;;18.60;99.90;;;;;;6242248;23;20168;-93
2021/08/28 02:10:17;;;;;;;3.03;1.80;;;18.50;99.90;;;;;;6242195;23;20218;-93
2021/08/28 02:12:52;;;;;;;3.93;1.80;;;18.40;99.90;;;;;;6237602;23;20200;-93
2021/08/28 02:15:37;;;;;;;5.00;1.90;;;18.30;99.90;;;;;;6224336;23;20195;-92
2021/08/28 02:18:25;;;;;;;4.77;1.80;;;18.30;99.90;;;;;;6235977;23;20179;-91
2021/08/28 02:20:59;;;;;;;5.23;2.30;;;18.20;99.90;;;;;;6226506;23;20199;-92
2021/08/28 02:23:40;;;;;;;3.07;1.90;;;18.10;99.90;;;;;;6232840;23;20219;-92
2021/08/28 02:26:19;;;;;;;3.67;1.77;;;18.00;99.90;;;;;;6232464;23;20669;-93
2021/08/28 02:28:54;;;;;;;4.30;2.20;;;17.90;99.90;;;;;;6232142;23;20184;-93
2021/08/28 02:31:30;;;;;;;4.03;1.83;;;17.90;99.90;;;;;;6233388;23;20179;-93
2021/08/28 02:34:06;;;;;;;2.67;2.00;;;17.80;99.90;;;;;;6236327;23;20204;-93
2021/08/28 02:36:41;;;;;;;2.93;1.80;;;17.70;99.90;;;;;;6234338;23;20207;-93
2021/08/28 02:39:14;;;;;;;6.30;2.17;;;17.60;99.90;;;;;;6233746;23;20168;-93
2021/08/28 02:41:47;;;;;;;4.07;2.27;;;17.50;99.90;;;;;;6232812;23;20180;-94
2021/08/28 02:53:22;;;;;;;4.10;1.93;;;17.20;99.90;;;;;;6234832;23;20200;-93
2021/08/28 02:55:57;;;;;;;5.37;2.60;;;17.10;99.90;;;;;;6233313;23;20191;-93
2021/08/28 02:58:30;;;;;;;4.33;2.10;;;16.90;99.90;;;;;;6236414;23;20211;-93
2021/08/28 03:01:04;;;;;;;3.13;2.50;;;16.90;99.90;;;;;;6240605;23;20187;-92
2021/08/28 03:15:26;;;;;;;3.37;2.23;;;16.20;99.90;;;;;;6245064;22;20200;-93
2021/08/28 03:18:04;;;;;;;4.63;2.47;;;16.10;99.90;;;;;;6236251;23;20179;-94
2021/08/28 03:20:36;;;;;;;4.37;2.63;;;16.00;99.90;;;;;;6236334;23;20251;-95
2021/08/28 03:23:08;;;;;;;5.17;2.50;;;16.00;99.90;;;;;;6237050;23;20152;-95
2021/08/28 03:25:41;;;;;;;4.73;2.40;;;15.90;99.90;;;;;;6237883;23;20240;-95
2021/08/28 03:28:14;;;;;;;6.33;2.37;;;15.80;99.90;;;;;;6238246;23;20176;-95
2021/08/28 03:30:58;;;;;;;4.27;2.83;;;15.80;99.90;;;;;;6240708;23;20192;-96
2021/08/28 03:36:27;;;;;;;6.87;2.53;;;15.60;99.90;;;;;;6236303;23;20490;-95
2021/08/28 03:38:58;;;;;;;5.97;2.60;;;15.60;99.90;;;;;;6241016;23;20248;-94
2021/08/28 03:46:56;;;;;;;5.13;2.67;;;15.40;99.90;;;;;;6240129;22;20275;-94
2021/08/28 03:49:29;;;;;;;7.07;2.63;;;15.30;99.90;;;;;;6240067;23;20176;-94
2021/08/28 03:52:00;;;;;;;5.47;3.00;;;15.30;99.90;;;;;;6229087;23;20220;-94
2021/08/28 03:54:36;;;;;;;7.63;3.17;;;15.20;99.90;;;;;;6226235;23;20276;-95
2021/08/28 03:57:23;;;;;;;4.10;2.57;;;15.20;99.90;;;;;;6232664;23;20199;-94
2021/08/28 03:59:58;;;;;;;5.00;2.77;;;15.10;99.90;;;;;;6231668;23;20177;-94
2021/08/28 04:02:31;;;;;;;5.07;2.87;;;15.00;99.90;;;;;;6232418;23;20396;-95
2021/08/28 04:05:03;;;;;;;4.30;2.80;;;15.00;99.90;;;;;;6226136;23;20247;-95
2021/08/28 04:07:40;;;;;;;4.83;2.97;;;14.90;99.90;;;;;;6223270;23;20165;-94
2021/08/28 04:10:12;;;;;;;4.43;2.63;;;14.90;99.90;;;;;;6233672;23;20165;-95
2021/08/28 04:12:44;;;;;;;5.37;2.50;;;14.80;99.90;;;;;;6220056;23;20172;-94
2021/08/28 04:15:17;;;;;;;4.30;2.70;;;14.70;99.90;;;;;;6224269;23;20200;-94
2021/08/28 04:17:53;;;;;;;4.37;3.00;;;14.60;99.90;;;;;;6229698;23;20176;-95
2021/08/28 04:20:25;;;;;;;3.20;2.60;;;14.60;99.90;;;;;;6230695;23;20168;-95
2021/08/28 04:22:57;;;;;;;5.83;3.10;;;14.60;99.90;;;;;;6233032;23;20181;-94
2021/08/28 04:25:29;;;;;;;4.07;2.60;;;14.50;99.90;;;;;;6233771;23;20169;-94
2021/08/28 04:28:02;;;;;;;4.13;3.10;;;14.50;99.90;;;;;;6229963;23;20190;-93
2021/08/28 04:33:15;;;;;;;5.77;2.80;;;14.50;99.90;;;;;;6236542;22;20202;-92
2021/08/28 04:35:50;;;;;;;6.87;3.23;;;14.40;99.90;;;;;;6235630;23;20236;-93
2021/08/28 04:38:22;;;;;;;5.30;3.20;;;14.40;99.90;;;;;;6235800;23;20173;-93
2021/08/28 04:40:54;;;;;;;7.23;3.20;;;14.30;99.90;;;;;;6221324;23;20172;-94
2021/08/28 04:43:26;;;;;;;3.20;2.80;;;14.30;99.90;;;;;;6220384;23;20171;-93
2021/08/28 04:45:57;;;;;;;5.17;3.13;;;14.20;99.90;;;;;;6228138;23;20554;-93
2021/08/28 04:48:32;;;;;;;6.37;2.90;;;14.20;99.90;;;;;;6220603;23;20296;-93
2021/08/28 04:51:04;;;;;;;4.00;2.77;;;14.20;99.90;;;;;;6219347;23;20180;-93
2021/08/28 04:53:35;;;;;;;4.73;3.30;;;14.10;99.90;;;;;;6220982;23;20177;-93
2021/08/28 04:56:07;;;;;;;4.27;3.00;;;14.10;99.90;;;;;;6221171;23;20229;-93
2021/08/28 04:58:38;;;;;;;3.97;2.83;;;14.10;99.90;;;;;;6219684;23;20177;-93
2021/08/28 05:01:09;;;;;;;5.00;3.07;;;14.00;99.90;;;;;;6220284;23;20192;-94
2021/08/28 05:03:43;;;;;;;4.87;2.80;;;14.00;99.90;;;;;;6222969;23;20180;-93
2021/08/28 05:06:14;;;;;;;6.43;2.80;;;14.00;99.90;;;;;;6222299;23;20187;-94
2021/08/28 05:08:46;;;;;;;4.60;2.83;;;14.00;99.90;;;;;;6222945;23;20650;-93
2021/08/28 05:11:17;;;;;;;6.40;3.33;;;13.90;99.90;;;;;;6227492;23;20512;-93
2021/08/28 05:13:49;;;;;;;4.73;2.97;;;13.90;99.90;;;;;;6237968;23;20184;-93
2021/08/28 05:16:20;;;;;;;6.23;3.10;;;13.90;99.90;;;;;;6242132;23;20183;-94
2021/08/28 05:18:53;;;;;;;4.93;2.73;;;13.80;99.90;;;;;;6239974;22;20214;-94
2021/08/28 05:21:27;;;;;;;4.90;3.00;;;13.80;99.90;;;;;;6238789;23;20194;-92
2021/08/28 05:23:58;;;;;;;4.93;3.00;;;13.80;99.90;;;;;;6240851;23;20177;-94
2021/08/28 05:26:30;;;;;;;5.20;2.90;;;13.80;99.90;;;;;;6237632;23;20182;-94
2021/08/28 05:29:01;;;;;;;5.37;3.13;;;13.80;99.90;;;;;;6226513;23;20169;-94
2021/08/28 05:31:32;;;;;;;4.47;3.03;;;13.80;99.90;;;;;;6220572;23;20165;-95
2021/08/28 05:34:06;;;;;;;4.53;3.20;;;13.80;99.90;;;;;;6221326;23;20204;-94
2021/08/28 05:36:38;;;;;;;4.00;2.80;;;13.70;99.90;;;;;;6222550;23;20183;-94
2021/08/28 05:39:09;;;;;;;3.53;2.90;;;13.70;99.90;;;;;;6222036;23;20172;-94
2021/08/28 05:41:40;;;;;;;4.60;2.93;;;13.70;99.90;;;;;;6219769;23;20172;-94
2021/08/28 05:44:11;;;;;;;5.60;3.00;;;13.60;99.90;;;;;;6221280;23;20212;-94
2021/08/28 05:46:43;;;;;;;4.97;2.83;;;13.60;99.90;;;;;;6233098;23;20199;-94
2021/08/28 05:49:17;;;;;;;4.50;2.90;;;13.60;99.90;;;;;;6232264;23;20169;-94
2021/08/28 05:51:48;;;;;;;4.50;2.90;;;13.60;99.90;;;;;;6231060;23;20187;-94
2021/08/28 05:54:20;;;;;;;7.33;3.10;;;13.60;99.90;;;;;;6229156;23;20220;-94
2021/08/28 06:01:58;;;;;;;6.07;2.80;;;13.50;99.90;;;;;;6251020;22;20205;-93
2021/08/28 06:07:08;;;;;;;5.60;3.10;;;13.40;99.90;;;;;;6318225;22;20181;-94
2021/08/28 06:09:43;;;;;;;5.87;3.43;;;13.40;99.90;;;;;;6317029;22;20181;-95
2021/08/28 06:12:15;;;;;;;7.10;3.13;;;13.30;99.90;;;;;;6313234;22;20173;-95
2021/08/28 06:14:46;;;;;;;5.47;3.17;;;13.30;99.90;;;;;;6314811;22;20222;-94
2021/08/28 06:17:18;;;;;;;4.73;3.07;;;13.20;99.90;;;;;;6313041;22;20176;-94
2021/08/28 06:19:49;;;;;;;7.13;3.10;;;13.20;99.90;;;;;;6286148;22;20656;-94
2021/08/28 06:22:23;;;;;;;5.37;3.30;;;13.20;99.90;;;;;;6311385;22;20166;-94
2021/08/28 06:24:54;;;;;;;5.73;3.10;;;13.10;99.90;;;;;;6312188;22;20194;-94
2021/08/28 06:27:25;;;;;;;3.73;2.83;;;13.10;99.90;;;;;;6313389;22;20189;-94
2021/08/28 06:29:57;;;;;;;6.13;2.87;;;13.10;99.90;;;;;;6285915;22;20178;-95
2021/08/28 06:32:29;;;;;;;10.07;3.90;;;13.10;99.90;;;;;;6284032;22;20175;-93
2021/08/28 06:35:10;;;;;;;3.87;3.30;;;13.10;99.90;;;;;;6299641;22;20194;-94
2021/08/28 06:37:43;;;;;;;6.20;3.33;;;13.00;99.90;;;;;;6312924;22;20175;-93
2021/08/28 06:40:15;;;;;;;6.33;2.97;;;13.00;99.90;;;;;;6312007;22;20170;-95
2021/08/28 06:42:47;;;;;;;6.87;3.30;;;13.00;99.90;;;;;;6313303;22;20167;-93
2021/08/28 06:45:20;;;;;;;5.87;3.90;;;12.90;99.90;;;;;;6313299;22;20187;-93
2021/08/28 06:47:51;;;;;;;5.60;3.53;;;12.90;99.90;;;;;;6312434;22;20235;-92
2021/08/28 06:50:23;;;;;;;6.10;3.30;;;12.90;99.90;;;;;;6313047;22;20167;-93
2021/08/28 06:52:56;;;;;;;4.17;3.00;;;12.80;99.90;;;;;;6311804;22;20177;-93
2021/08/28 06:55:29;;;;;;;5.93;3.13;;;12.80;99.90;;;;;;6288028;22;20198;-92
2021/08/28 06:58:01;;;;;;;5.17;3.63;;;12.80;99.90;;;;;;6315802;22;20185;-92
2021/08/28 07:00:32;;;;;;;5.63;3.60;;;12.80;99.90;;;;;;6283785;22;20190;-93
2021/08/28 07:03:03;;;;;;;5.27;3.67;;;12.70;99.90;;;;;;6313937;22;20177;-92
2021/08/28 07:05:35;;;;;;;4.80;3.40;;;12.70;99.90;;;;;;6310761;22;20617;-93
2021/08/28 07:08:13;;;;;;;5.47;3.40;;;12.60;99.90;;;;;;6295650;22;20166;-93
2021/08/28 07:10:46;;;;;;;4.33;3.03;;;12.60;99.90;;;;;;6326098;22;20627;-93
2021/08/28 07:13:17;;;;;;;4.57;3.33;;;12.60;99.90;;;;;;6320469;22;20178;-92
2021/08/28 07:15:50;;;;;;;6.37;3.57;;;12.60;99.90;;;;;;6327012;22;20242;-93
2021/08/28 07:18:21;;;;;;;4.53;3.63;;;12.60;99.90;;;;;;6316913;22;20180;-93
2021/08/28 07:20:52;;;;;;;6.47;3.53;;;12.60;99.90;;;;;;6311119;22;20178;-94
2021/08/28 07:23:25;;;;;;;6.30;2.97;;;12.60;99.90;;;;;;6289353;22;20601;-94
2021/08/28 07:25:57;;;;;;;6.27;3.20;;;12.50;99.90;;;;;;6327010;22;20161;-93
2021/08/28 07:28:28;;;;;;;8.10;3.37;;;12.50;99.90;;;;;;6335934;22;20383;-94
2021/08/28 07:30:59;;;;;;;4.97;3.03;;;12.50;99.90;;;;;;6334862;22;20197;-94
2021/08/28 07:33:31;;;;;;;6.30;3.53;;;12.50;99.90;;;;;;6335624;22;20185;-94
2021/08/28 07:36:02;;;;;;;4.80;3.40;;;12.50;99.90;;;;;;6335123;22;20205;-94
2021/08/28 07:38:36;;;;;;;6.67;3.80;;;12.50;99.90;;;;;;6334885;22;20185;-94
2021/08/28 07:41:07;;;;;;;5.33;3.40;;;12.50;99.90;;;;;;6325264;22;20166;-94
2021/08/28 07:43:40;;;;;;;7.63;3.57;;;12.50;99.90;;;;;;6313781;22;20628;-93
2021/08/28 07:46:11;;;;;;;6.53;3.80;;;12.50;99.90;;;;;;6314228;22;20174;-93
2021/08/28 07:48:43;;;;;;;6.53;3.67;;;12.40;99.90;;;;;;6314174;22;20174;-94
2021/08/28 07:51:14;;;;;;;9.03;4.00;;;12.40;99.90;;;;;;6312851;22;20197;-93
2021/08/28 07:53:48;;;;;;;6.23;3.77;;;12.40;99.90;;;;;;6313288;22;20200;-93
2021/08/28 07:56:19;;;;;;;7.60;3.97;;;12.40;99.90;;;;;;6314414;22;20190;-93
2021/08/28 07:58:50;;;;;;;7.87;4.07;;;12.40;99.90;;;;;;6313717;22;20174;-94
2021/08/28 08:01:21;;;;;;;8.07;3.83;;;12.40;99.90;;;;;;6313258;22;20181;-93
2021/08/28 08:03:53;;;;;;;6.40;3.40;;;12.30;99.90;;;;;;6313930;22;20166;-93
2021/08/28 08:06:26;;;;;;;7.17;3.70;;;12.30;99.90;;;;;;6313770;22;20547;-94
2021/08/28 08:08:59;;;;;;;6.87;3.73;;;12.20;99.90;;;;;;6314638;22;20174;-94
2021/08/28 08:11:30;;;;;;;4.97;3.67;;;12.20;99.90;;;;;;6287566;22;20223;-93
2021/08/28 08:14:02;;;;;;;6.70;3.80;;;12.20;99.90;;;;;;6334128;22;20158;-94
2021/08/28 08:16:34;;;;;;;4.83;3.53;;;12.20;99.90;;;;;;6334697;22;20198;-93
2021/08/28 08:19:06;;;;;;;5.93;4.07;;;12.20;99.90;;;;;;6328457;22;20172;-94
2021/08/28 08:21:38;;;;;;;7.83;4.00;;;12.20;99.90;;;;;;6262479;22;20174;-94
2021/08/28 08:24:14;;;;;;;11.67;4.00;;;12.20;99.90;;;;;;6313870;22;20228;-93
2021/08/28 08:26:45;;;;;;;5.53;3.23;;;12.20;99.90;;;;;;6320576;22;20171;-94
2021/08/28 08:29:17;;;;;;;7.37;3.97;;;12.10;99.90;;;;;;6313388;22;20182;-93
2021/08/28 08:31:53;;;;;;;5.00;3.30;;;12.10;99.90;;;;;;6324920;22;20171;-94
2021/08/28 08:34:25;;;;;;;6.80;3.80;;;12.10;99.90;;;;;;6322225;22;20182;-94
2021/08/28 08:36:56;;;;;;;6.40;3.87;;;12.10;99.90;;;;;;6327958;22;20256;-92
2021/08/28 08:39:30;;;;;;;7.40;3.93;;;12.00;99.90;;;;;;6330242;22;20154;-93
2021/08/28 08:42:04;;;;;;;6.83;3.43;;;12.00;99.90;;;;;;6300209;22;20173;-93
2021/08/28 08:44:36;;;;;;;10.13;3.70;;;12.00;99.90;;;;;;6323755;22;20169;-93
2021/08/28 08:47:08;;;;;;;5.90;3.30;;;12.00;99.90;;;;;;6317562;22;20190;-94
2021/08/28 08:49:41;;;;;;;5.60;3.70;;;12.00;99.90;;;;;;6319510;22;20162;-94
2021/08/28 08:52:14;;;;;;;6.60;3.80;;;12.00;99.90;;;;;;6316783;22;20240;-94
2021/08/28 08:54:47;;;;;;;5.33;3.70;;;12.00;99.90;;;;;;6316958;22;20183;-94
2021/08/28 08:57:19;;;;;;;4.97;3.50;;;12.00;99.90;;;;;;6319348;22;20198;-93
2021/08/28 08:59:51;;;;;;;6.07;3.93;;;12.00;99.90;;;;;;6315290;22;20182;-93
2021/08/28 09:02:22;;;;;;;5.00;3.70;;;12.00;99.90;;;;;;6312135;22;20229;-94
2021/08/28 09:04:53;;;;;;;8.33;4.47;;;11.90;99.90;;;;;;6285821;22;20170;-93
2021/08/28 09:07:25;;;;;;;5.37;3.83;;;11.90;99.90;;;;;;6285691;22;20193;-94
2021/08/28 09:09:58;;;;;;;5.07;3.80;;;11.90;99.90;;;;;;6312757;22;20163;-93
2021/08/28 09:12:37;;;;;;;8.20;3.90;;;11.90;99.90;;;;;;6311543;22;20170;-93
2021/08/28 09:15:12;;;;;;;7.83;4.17;;;11.90;99.90;;;;;;6312459;22;20190;-93
2021/08/28 09:17:44;;;;;;;6.30;4.20;;;11.80;99.90;;;;;;6287030;22;20264;-93
2021/08/28 09:20:21;;;;;;;6.33;4.13;;;11.80;99.90;;;;;;6312506;22;20613;-95
2021/08/28 09:23:03;;;;;;;9.80;4.67;;;11.80;99.90;;;;;;6313006;22;20166;-93
2021/08/28 09:25:38;;;;;;;8.10;4.20;;;11.90;99.90;;;;;;6285801;22;20159;-93
2021/08/28 09:28:10;;;;;;;7.20;4.23;;;11.90;99.90;;;;;;6311633;22;20189;-93
2021/08/28 09:30:43;;;;;;;10.00;4.27;;;11.80;99.90;;;;;;6314082;22;20182;-94
2021/08/28 09:33:16;;;;;;;7.93;4.10;;;11.80;99.90;;;;;;6312317;22;20562;-94
2021/08/28 09:35:52;;;;;;;5.97;4.10;;;11.80;99.90;;;;;;6311236;22;20181;-94
2021/08/28 09:38:24;;;;;;;7.60;4.60;;;11.80;99.90;;;;;;6284788;22;20181;-94
2021/08/28 09:41:01;;;;;;;7.33;4.30;;;11.80;99.90;;;;;;6311259;22;20182;-93
2021/08/28 09:43:34;;;;;;;5.60;4.13;;;11.70;99.90;;;;;;6311341;22;20174;-93
2021/08/28 09:46:11;;;;;;;7.00;4.73;;;11.70;99.90;;;;;;6288830;22;20190;-94
2021/08/28 09:48:43;;;;;;;7.47;4.63;;;11.60;99.90;;;;;;6311547;22;20238;-94
2021/08/28 09:51:15;;;;;;;6.23;4.50;;;11.60;99.90;;;;;;6312320;22;20178;-94
2021/08/28 09:53:47;;;;;;;11.33;4.97;;;11.50;99.90;;;;;;6312283;22;20170;-93
2021/08/28 09:56:28;;;;;;;7.00;4.87;;;11.50;99.90;;;;;;6312192;22;20313;-93
2021/08/28 09:58:59;;;;;;;8.53;4.40;;;11.50;99.90;;;;;;6313568;22;20258;-94
2021/08/28 10:01:30;;;;;;;11.27;5.10;;;11.50;99.90;;;;;;6310041;22;20174;-93
2021/08/28 10:04:02;;;;;;;6.90;4.67;;;11.50;99.90;;;;;;6313698;22;20163;-94
2021/08/28 10:06:34;;;;;;;7.27;4.63;;;11.50;99.90;;;;;;6311838;22;20215;-94
2021/08/28 10:09:05;;;;;;;9.73;4.77;;;11.50;99.90;;;;;;6287013;22;20174;-93
2021/08/28 10:11:39;;;;;;;6.17;4.97;;;11.50;99.90;;;;;;6310028;22;20235;-94
2021/08/28 10:14:12;;;;;;;8.97;5.13;;;11.50;99.90;;;;;;6312341;22;20169;-93
2021/08/28 10:16:44;;;;;;;8.27;5.10;;;11.50;99.90;;;;;;6285015;22;20659;-93
2021/08/28 10:19:17;;;;;;;7.47;4.63;;;11.60;99.90;;;;;;6311705;22;20182;-92
2021/08/28 10:21:51;;;;;;;10.77;4.70;;;11.50;99.90;;;;;;6285035;22;20236;-92
2021/08/28 10:24:24;;;;;;;7.43;4.67;;;11.60;99.90;;;;;;6312813;22;20178;-92
2021/08/28 10:26:57;;;;;;;6.50;4.40;;;11.60;99.90;;;;;;6311371;22;20174;-93
2021/08/28 10:29:30;;;;;;;10.93;4.30;;;11.60;99.90;;;;;;6327260;22;20162;-93
2021/08/28 10:32:02;;;;;;;7.97;4.80;;;11.60;99.90;;;;;;6307095;22;20169;-91
2021/08/28 10:34:34;;;;;;;7.73;5.27;;;11.60;99.90;;;;;;6331099;22;20189;-93
2021/08/28 10:37:05;;;;;;;5.90;4.63;;;11.60;99.90;;;;;;6313600;22;20316;-91
2021/08/28 10:39:37;;;;;;;5.67;4.40;;;11.60;99.90;;;;;;6313440;22;20186;-91
2021/08/28 10:42:13;;;;;;;8.27;4.40;;;11.60;99.90;;;;;;6312171;22;20236;-92
2021/08/28 10:44:44;;;;;;;7.87;4.63;;;11.60;99.90;;;;;;6285601;22;20604;-93
2021/08/28 10:47:17;;;;;;;8.63;4.40;;;11.60;99.90;;;;;;6311879;22;20177;-93
2021/08/28 10:49:52;;;;;;;8.23;4.50;;;11.50;99.90;;;;;;6313796;22;20557;-92
2021/08/28 10:52:25;;;;;;;8.07;4.40;;;11.50;99.90;;;;;;6313916;22;20219;-93
2021/08/28 10:54:57;;;;;;;8.57;4.53;;;11.50;99.90;;;;;;6314527;22;20185;-92
2021/08/28 10:57:31;;;;;;;7.90;4.73;;;11.40;99.90;;;;;;6316705;22;20213;-93
2021/08/28 11:00:07;;;;;;;7.30;4.70;;;11.40;99.90;;;;;;6316980;22;20170;-92
2021/08/28 11:02:54;;;;;;;5.77;3.93;;;11.40;99.90;;;;;;6319255;22;20197;-92
2021/08/28 11:05:30;;;;;;;5.87;4.50;;;11.40;99.90;;;;;;6333422;22;20196;-92
2021/08/28 11:08:18;;;;;;;7.73;4.47;;;11.40;99.90;;;;;;6334941;22;20203;-92
2021/08/28 11:11:19;;;;;;;8.20;4.47;;;11.30;99.90;;;;;;6334356;22;20162;-90
2021/08/28 11:14:03;;;;;;;8.27;4.33;;;11.30;99.90;;;;;;6332049;22;20177;-92
2021/08/28 11:16:55;;;;;;;7.07;4.63;;;11.30;99.90;;;;;;6330531;22;20171;-92
2021/08/28 11:19:40;;;;;;;8.73;4.37;;;11.30;99.90;;;;;;6303082;22;20181;-92
2021/08/28 11:22:24;;;;;;;8.27;4.37;;;11.30;99.90;;;;;;6313272;22;20510;-92
2021/08/28 11:25:00;;;;;;;8.40;4.50;;;11.30;99.90;;;;;;6314253;22;20205;-92
2021/08/28 11:27:42;;;;;;;7.60;4.70;;;11.30;99.90;;;;;;6313797;22;20203;-92
2021/08/28 11:30:17;;;;;;;6.80;4.47;;;11.20;99.90;;;;;;6314938;22;20223;-93
2021/08/28 11:33:02;;;;;;;6.47;4.50;;;11.10;99.90;;;;;;6313780;22;20242;-93
2021/08/28 11:35:34;;;;;;;8.00;4.60;;;11.10;99.90;;;;;;6313729;22;20651;-92
2021/08/28 11:38:09;;;;;;;9.37;4.73;;;11.20;99.90;;;;;;6314052;22;20191;-92
2021/08/28 11:40:41;;;;;;;9.03;4.37;;;11.20;99.90;;;;;;6312491;22;20204;-92
2021/08/28 11:43:12;;;;;;;7.03;4.20;;;11.10;99.90;;;;;;6313060;22;20181;-92
2021/08/28 11:45:45;;;;;;;8.67;4.60;;;11.20;99.90;;;;;;6286895;22;20178;-92
2021/08/28 11:48:18;;;;;;;8.83;4.47;;;11.10;99.90;;;;;;6313178;22;20170;-92
2021/08/28 11:50:50;;;;;;;6.90;5.00;;;11.10;99.90;;;;;;6285585;22;20667;-92
2021/08/28 11:53:28;;;;;;;8.27;4.80;;;11.00;99.90;;;;;;6313242;22;20179;-92
2021/08/28 11:56:08;;;;;;;7.10;4.37;;;11.00;99.90;;;;;;6312660;22;20190;-92
2021/08/28 11:58:56;;;;;;;6.60;4.73;;;11.00;99.90;;;;;;6315828;22;20247;-93
2021/08/28 12:01:41;;;;;;;8.00;4.53;;;11.00;99.90;;;;;;6313896;22;20509;-92
2021/08/28 12:04:14;;;;;;;6.43;4.60;;;11.00;99.90;;;;;;6313329;22;20242;-91
2021/08/28 12:06:46;;;;;;;10.90;4.87;;;11.00;99.90;;;;;;6312834;22;20580;-92
2021/08/28 12:09:18;;;;;;;8.03;4.77;;;11.00;99.90;;;;;;6314234;22;20183;-92
2021/08/28 12:11:51;;;;;;;8.87;4.93;;;11.00;99.90;;;;;;6313970;22;20181;-92
2021/08/28 12:14:26;;;;;;;8.60;4.50;;;10.90;99.90;;;;;;6314236;22;20205;-92
2021/08/28 12:16:59;;;;;;;10.50;4.60;;;10.90;99.90;;;;;;6313205;22;20201;-92
2021/08/28 12:19:33;;;;;;;4.67;4.17;;;10.90;99.90;;;;;;6313469;22;20198;-92
2021/08/28 12:22:08;;;;;;;6.07;4.63;;;10.80;99.90;;;;;;6311224;22;20636;-92
2021/08/28 12:24:41;;;;;;;5.60;4.63;;;10.80;99.90;;;;;;6313160;22;20170;-92
2021/08/28 12:27:14;;;;;;;7.10;4.63;;;10.90;99.90;;;;;;6312699;22;20174;-92
2021/08/28 12:29:46;;;;;;;7.07;4.83;;;10.80;99.90;;;;;;6286183;22;20219;-92
2021/08/28 12:32:23;;;;;;;6.00;4.77;;;10.80;99.90;;;;;;6313510;22;20181;-92
2021/08/28 12:34:55;;;;;;;7.10;4.57;;;10.70;99.90;;;;;;6315057;22;20174;-91
2021/08/28 12:37:29;;;;;;;6.97;4.33;;;10.70;99.90;;;;;;6313577;22;20678;-90
2021/08/28 12:40:02;;;;;;;6.80;4.50;;;10.70;99.90;;;;;;6289538;22;20185;-92
2021/08/28 12:42:36;;;;;;;9.20;5.03;;;10.60;99.90;;;;;;6312766;22;20173;-92
2021/08/28 12:45:08;;;;;;;6.67;4.47;;;10.60;99.90;;;;;;6317415;22;20675;-92
2021/08/28 12:47:45;;;;;;;7.53;4.60;;;10.60;99.90;;;;;;6330993;22;20216;-92
2021/08/28 12:50:20;;;;;;;8.73;4.80;;;10.60;99.90;;;;;;6329804;22;20639;-93
2021/08/28 12:52:53;;;;;;;6.77;4.40;;;10.60;99.90;;;;;;6315559;22;20224;-93
2021/08/28 12:55:30;;;;;;;7.47;4.97;;;10.60;99.90;;;;;;6327215;22;20180;-92
2021/08/28 12:58:03;;;;;;;6.30;5.07;;;10.60;99.90;;;;;;6333650;22;20193;-92
2021/08/28 13:00:41;;;;;;;7.80;4.60;;;10.50;99.90;;;;;;6333294;22;20205;-93
2021/08/28 13:03:29;;;;;;;8.47;4.97;;;10.50;99.90;;;;;;6334444;22;20165;-92
2021/08/28 13:06:00;;;;;;;8.33;5.03;;;10.50;99.90;;;;;;6334226;22;20190;-93
2021/08/28 13:08:32;;;;;;;5.47;4.47;;;10.50;99.90;;;;;;6333853;22;20174;-92
2021/08/28 13:11:18;;;;;;;7.83;4.93;;;10.50;99.90;;;;;;6323134;22;20193;-92
2021/08/28 13:13:54;;;;;;;8.70;5.57;;;10.50;99.90;;;;;;6315652;22;20166;-92
2021/08/28 13:16:26;;;;;;;8.40;4.73;;;10.50;99.90;;;;;;6286754;22;20578;-92
2021/08/28 13:19:14;;;;;;;9.03;4.93;;;10.50;99.90;;;;;;6311676;22;20226;-92
2021/08/28 13:21:55;;;;;;;9.00;4.90;;;10.50;99.90;;;;;;6312395;22;20257;-92
2021/08/28 13:24:26;;;;;;;7.07;4.77;;;10.50;99.90;;;;;;6311705;22;20174;-92
2021/08/28 13:27:00;;;;;;;7.50;5.23;;;10.50;99.90;;;;;;6312080;22;20511;-92
2021/08/28 13:29:33;;;;;;;10.10;5.00;;;10.40;99.90;;;;;;6312156;22;20166;-92
2021/08/28 13:32:11;;;;;;;8.67;5.33;;;10.30;99.90;;;;;;6311563;22;20181;-92
2021/08/28 13:34:45;;;;;;;8.10;4.97;;;10.30;99.90;;;;;;6311746;22;20174;-92
2021/08/28 13:37:17;;;;;;;7.00;5.00;;;10.40;99.90;;;;;;6312519;22;20565;-92
2021/08/28 13:39:50;;;;;;;8.80;4.83;;;10.40;99.90;;;;;;6311054;22;20285;-92
2021/08/28 13:42:23;;;;;;;8.90;4.70;;;10.40;99.90;;;;;;6311683;22;20169;-93
2021/08/28 13:44:55;;;;;;;6.03;4.60;;;10.40;99.90;;;;;;6312804;22;20224;-93
2021/08/28 13:47:26;;;;;;;7.23;5.17;;;10.50;99.90;;;;;;6312333;22;20553;-93
2021/08/28 13:50:02;;;;;;;7.87;5.23;;;10.50;99.90;;;;;;6312400;22;20175;-93
2021/08/28 13:52:34;;;;;;;8.03;5.10;;;10.50;99.90;;;;;;6311505;22;20170;-93
2021/08/28 13:55:06;;;;;;;8.60;5.13;;;10.50;99.90;;;;;;6311872;22;20709;-92
2021/08/28 13:57:37;;;;;;;7.63;4.80;;;10.60;99.90;;;;;;6311941;22;20174;-92
2021/08/28 14:00:10;;;;;;;7.43;5.27;;;10.60;99.90;;;;;;6284549;22;20231;-92
2021/08/28 14:02:43;;;;;;;11.17;5.10;;;10.60;99.90;;;;;;6311665;22;20169;-93
2021/08/28 14:05:18;;;;;;;5.20;4.53;;;10.60;99.90;;;;;;6311610;22;20569;-93
2021/08/28 14:07:50;;;;;;;6.93;5.27;;;10.60;99.90;;;;;;6312257;22;20166;-92
2021/08/28 14:10:21;;;;;;;8.80;4.73;;;10.60;99.90;;;;;;6311090;22;20167;-92
2021/08/28 14:12:53;;;;;;;6.60;5.00;;;10.70;99.90;;;;;;6312255;22;20166;-92
2021/08/28 14:15:24;;;;;;;7.33;4.80;;;10.70;99.90;;;;;;6312318;22;20224;-92
2021/08/28 14:17:56;;;;;;;7.53;5.00;;;10.80;99.90;;;;;;6311605;22;20177;-92
2021/08/28 14:20:29;;;;;;;6.57;5.07;;;10.80;99.90;;;;;;6310507;22;20202;-92
2021/08/28 14:23:00;;;;;;;6.50;5.07;;;10.80;99.90;;;;;;6312152;22;20182;-92
2021/08/28 14:25:32;;;;;;;10.53;4.80;;;10.80;99.90;;;;;;6314186;22;20178;-92
2021/08/28 14:28:04;;;;;;;8.90;4.70;;;10.90;99.90;;;;;;6312039;22;20269;-92